Time;durP1;ratioP1;P1;durP2;ratioP2;P2;SDS_P1;SDS_P2;PMS_P1;PMS_P2;Temp;Humidity;BMP_temperature;BMP_pressure;BME280_temperature;BME280_humidity;BME280_pressure;Samples;Min_cycle;Max_cycle;Signal;HPM_P1;HPM_P2
2022/12/18 00:02:12;;;;;;;144.47;44.70;;;-2.90;99.90;;;;;;5018816;28;36556;-77
2022/12/18 00:04:38;;;;;;;168.33;51.83;;;-2.90;99.90;;;;;;5017147;28;37647;-77
2022/12/18 00:07:04;;;;;;;143.50;47.73;;;-3.00;99.90;;;;;;5019735;28;39362;-76
2022/12/18 00:09:30;;;;;;;123.90;44.07;;;-3.00;99.90;;;;;;5023801;28;37438;-77
2022/12/18 00:11:56;;;;;;;165.63;47.27;;;-3.00;99.90;;;;;;5018721;28;37317;-77
2022/12/18 00:14:22;;;;;;;135.17;45.87;;;-3.00;99.90;;;;;;5018211;28;39563;-77
2022/12/18 00:16:48;;;;;;;141.30;45.53;;;-3.00;99.90;;;;;;5026009;28;37200;-78
2022/12/18 00:19:15;;;;;;;146.60;48.33;;;-3.00;99.90;;;;;;5024405;28;38192;-76
2022/12/18 00:21:42;;;;;;;157.23;50.20;;;-3.10;99.90;;;;;;5022474;28;36442;-77
2022/12/18 00:24:09;;;;;;;139.57;46.07;;;-3.10;99.90;;;;;;5038095;28;38610;-77
2022/12/18 00:26:37;;;;;;;121.00;44.07;;;-3.10;99.90;;;;;;5027452;28;38756;-76
2022/12/18 00:29:09;;;;;;;142.53;43.87;;;-3.10;99.90;;;;;;5025848;28;37466;-76
2022/12/18 00:31:36;;;;;;;;;;;-3.10;99.90;;;;;;5024545;28;47122;-76
2022/12/18 00:34:03;;;;;;;169.67;48.37;;;-3.20;99.90;;;;;;5021301;28;37701;-75
2022/12/18 00:36:33;;;;;;;132.13;47.20;;;-3.20;99.90;;;;;;5022095;28;38201;-77
2022/12/18 00:39:00;;;;;;;138.47;46.63;;;-3.20;99.90;;;;;;5025658;28;37207;-77
2022/12/18 00:44:14;;;;;;;127.90;44.17;;;-3.30;99.90;;;;;;5023322;28;39784;-77
2022/12/18 00:46:41;;;;;;;130.37;44.97;;;-3.30;99.90;;;;;;5022564;28;39366;-78
2022/12/18 00:49:07;;;;;;;121.97;42.50;;;-3.40;99.90;;;;;;5022298;28;38070;-77
2022/12/18 00:51:33;;;;;;;135.73;46.27;;;-3.40;99.90;;;;;;5017224;28;38878;-76
2022/12/18 00:53:59;;;;;;;163.33;50.00;;;-3.30;99.90;;;;;;5022653;28;38870;-76
2022/12/18 00:56:25;;;;;;;131.30;42.87;;;-3.30;99.90;;;;;;5018620;28;37175;-76
2022/12/18 00:58:52;;;;;;;148.90;42.30;;;-3.40;99.90;;;;;;5019112;28;38262;-77
2022/12/18 01:01:18;;;;;;;141.67;44.50;;;-3.50;99.90;;;;;;5011080;28;37053;-77
2022/12/18 01:03:47;;;;;;;147.33;46.53;;;-3.50;99.90;;;;;;5011931;28;40234;-76
2022/12/18 01:06:15;;;;;;;144.77;45.20;;;-3.50;99.90;;;;;;5013676;28;38212;-76
2022/12/18 01:08:41;;;;;;;117.80;42.00;;;-3.50;99.90;;;;;;5018545;28;37597;-76
2022/12/18 01:11:13;;;;;;;147.90;45.60;;;-3.40;99.90;;;;;;5016045;28;36678;-76
2022/12/18 01:13:39;;;;;;;149.93;46.03;;;-3.40;99.90;;;;;;5027093;28;39331;-76
2022/12/18 01:16:06;;;;;;;145.13;45.83;;;-3.40;99.90;;;;;;5025182;28;39229;-76
2022/12/18 01:18:32;;;;;;;138.20;45.20;;;-3.40;99.90;;;;;;5015718;28;37757;-78
2022/12/18 01:20:58;;;;;;;132.23;45.03;;;-3.40;99.90;;;;;;5018372;28;38069;-77
2022/12/18 01:23:27;;;;;;;131.87;43.33;;;-3.40;99.90;;;;;;5012721;28;37228;-75
2022/12/18 01:25:54;;;;;;;149.13;46.10;;;-3.40;99.90;;;;;;5016035;28;38628;-75
2022/12/18 01:28:20;;;;;;;191.10;52.37;;;-3.50;99.90;;;;;;5014679;28;39162;-77
2022/12/18 01:30:46;;;;;;;121.00;42.90;;;-3.50;99.90;;;;;;5016163;28;36325;-76
2022/12/18 01:33:12;;;;;;;139.83;45.13;;;-3.50;99.90;;;;;;5016452;28;38335;-77
2022/12/18 01:35:44;;;;;;;120.50;42.07;;;-3.50;99.90;;;;;;5014182;28;37074;-76
2022/12/18 01:38:10;;;;;;;142.02;45.72;;;-3.50;99.90;;;;;;5018874;28;37038;-76
2022/12/18 01:40:36;;;;;;;139.03;47.23;;;-3.50;99.90;;;;;;5020236;28;35969;-76
2022/12/18 01:43:02;;;;;;;132.17;43.47;;;-3.50;99.90;;;;;;5019628;28;40558;-77
2022/12/18 01:45:31;;;;;;;130.37;44.03;;;-3.50;99.90;;;;;;5019818;28;37321;-77
2022/12/18 01:48:08;;;;;;;152.07;46.80;;;-3.50;99.90;;;;;;5015282;28;37505;-76
2022/12/18 01:50:42;;;;;;;133.87;43.97;;;-3.50;99.90;;;;;;5024472;28;48838;-77
2022/12/18 01:53:14;;;;;;;136.47;43.70;;;-3.60;99.90;;;;;;5027241;28;37779;-76
2022/12/18 01:55:48;;;;;;;119.28;42.67;;;-3.60;99.90;;;;;;5022625;28;38301;-76
2022/12/18 01:58:14;;;;;;;128.30;42.60;;;-3.60;99.90;;;;;;5022616;28;38286;-77
2022/12/18 02:03:16;;;;;;;127.17;42.40;;;-3.60;99.90;;;;;;5251114;22;20057;-79
2022/12/18 02:05:59;;;;;;;161.33;48.37;;;-3.50;99.90;;;;;;5043238;28;39798;-79
2022/12/18 02:08:39;;;;;;;144.50;44.25;;;-3.60;99.90;;;;;;5059336;28;39479;-79
2022/12/18 02:11:22;;;;;;;170.23;47.53;;;-3.60;99.90;;;;;;5044076;28;37224;-79
2022/12/18 02:14:15;;;;;;;137.50;44.17;;;-3.50;99.90;;;;;;5044172;28;40496;-79
2022/12/18 02:17:20;;;;;;;102.47;34.88;;;-3.50;99.90;;;;;;5039671;28;47285;-80
2022/12/18 02:19:52;;;;;;;144.77;45.97;;;-3.50;99.90;;;;;;5027077;28;47998;-79
2022/12/18 02:22:29;;;;;;;153.45;48.58;;;-3.60;99.90;;;;;;5044540;28;38397;-79
2022/12/18 02:25:27;;;;;;;181.07;51.50;;;-3.60;99.90;;;;;;5043296;28;38850;-80
2022/12/18 02:27:56;;;;;;;130.27;42.37;;;-3.60;99.90;;;;;;5033269;28;46982;-79
2022/12/18 02:30:23;;;;;;;127.57;42.50;;;-3.60;99.90;;;;;;5037166;28;40664;-79
2022/12/18 02:32:54;;;;;;;124.27;42.50;;;-3.70;99.90;;;;;;5037106;28;38385;-79
2022/12/18 02:35:27;;;;;;;106.80;39.90;;;-3.70;99.90;;;;;;5033814;28;38655;-78
2022/12/18 02:37:57;;;;;;;103.40;38.50;;;-3.80;99.90;;;;;;5021794;28;39312;-79
2022/12/18 02:40:27;;;;;;;99.53;37.17;;;-3.90;99.90;;;;;;5057810;28;38618;-78
2022/12/18 02:42:53;;;;;;;97.50;36.33;;;-4.00;99.90;;;;;;5039719;28;38250;-79
2022/12/18 02:45:20;;;;;;;101.80;35.40;;;-4.00;99.90;;;;;;5041108;28;40366;-79
2022/12/18 02:47:49;;;;;;;94.37;35.03;;;-4.10;99.90;;;;;;5041163;28;39151;-79
2022/12/18 02:50:38;;;;;;;110.73;38.53;;;-4.20;99.90;;;;;;5040732;28;38959;-79
2022/12/18 02:53:19;;;;;;;108.57;39.83;;;-4.30;99.90;;;;;;5042892;28;36603;-79
2022/12/18 02:55:48;;;;;;;99.30;37.33;;;-4.40;99.90;;;;;;5040202;28;39430;-79
2022/12/18 02:58:23;;;;;;;86.93;34.20;;;-4.40;99.90;;;;;;5045608;28;39049;-79
2022/12/18 03:01:17;;;;;;;91.30;37.03;;;-4.40;99.90;;;;;;5043489;28;36858;-79
2022/12/18 03:03:52;;;;;;;;;;;-4.40;99.90;;;;;;5056912;28;47415;-79
2022/12/18 03:06:23;;;;;;;96.13;35.53;;;-4.50;99.90;;;;;;5043446;28;38202;-79
2022/12/18 03:08:57;;;;;;;84.57;34.37;;;-4.40;99.90;;;;;;5042701;28;38957;-79
2022/12/18 03:12:22;;;;;;;93.80;34.17;;;-4.40;99.90;;;;;;5034528;28;38598;-79
2022/12/18 03:14:15;;;;;;;100.47;36.00;;;-4.40;99.90;;;;;;5047096;28;37036;-79
2022/12/18 03:16:43;;;;;;;93.67;34.10;;;-4.40;99.90;;;;;;5044201;28;39793;-79
2022/12/18 03:19:18;;;;;;;88.03;36.30;;;-4.40;99.90;;;;;;5040937;28;39161;-79
2022/12/18 03:21:47;;;;;;;90.50;35.97;;;-4.40;99.90;;;;;;5057377;28;39061;-79
2022/12/18 03:24:15;;;;;;;94.40;36.83;;;-4.40;99.90;;;;;;5045441;28;37164;-79
2022/12/18 03:26:44;;;;;;;87.93;34.83;;;-4.40;99.90;;;;;;5043508;28;38860;-79
2022/12/18 03:29:21;;;;;;;102.90;37.70;;;-4.50;99.90;;;;;;5039699;28;38598;-79
2022/12/18 03:31:53;;;;;;;90.03;34.27;;;-4.50;99.90;;;;;;5042418;28;39087;-79
2022/12/18 03:34:31;;;;;;;92.40;36.35;;;-4.60;99.90;;;;;;5036985;28;38169;-79
2022/12/18 03:36:57;;;;;;;89.97;34.63;;;-4.60;99.90;;;;;;5031545;28;40124;-79
2022/12/18 03:39:24;;;;;;;85.37;34.30;;;-4.60;99.90;;;;;;5037068;28;39321;-79
2022/12/18 03:42:07;;;;;;;91.77;34.60;;;-4.60;99.90;;;;;;5041085;28;39418;-79
2022/12/18 03:44:45;;;;;;;80.88;33.17;;;-4.60;99.90;;;;;;5037579;28;48136;-79
2022/12/18 03:47:28;;;;;;;89.13;34.53;;;-4.60;99.90;;;;;;5038201;28;39096;-79
2022/12/18 03:49:54;;;;;;;92.03;33.57;;;-4.70;99.90;;;;;;5049322;28;39575;-79
2022/12/18 03:52:27;;;;;;;87.00;34.37;;;-4.70;99.90;;;;;;5050635;28;38756;-79
2022/12/18 03:54:54;;;;;;;;;;;-4.70;99.90;;;;;;5044736;28;37891;-79
2022/12/18 03:57:24;;;;;;;82.33;31.07;;;-4.70;99.90;;;;;;5037635;28;39357;-78
2022/12/18 03:59:56;;;;;;;85.57;33.27;;;-4.70;99.90;;;;;;5039909;28;39148;-78
2022/12/18 04:02:24;;;;;;;82.32;32.42;;;-4.90;99.90;;;;;;5043910;28;38026;-79
2022/12/18 04:04:54;;;;;;;84.77;31.70;;;-4.90;99.90;;;;;;5045846;28;38675;-79
2022/12/18 04:07:22;;;;;;;85.53;32.13;;;-4.90;99.90;;;;;;5038382;28;39644;-78
2022/12/18 04:09:50;;;;;;;77.40;31.70;;;-5.00;99.90;;;;;;5041489;28;39224;-79
2022/12/18 04:12:16;;;;;;;81.70;29.87;;;-5.10;99.90;;;;;;5045040;28;37477;-79
2022/12/18 04:14:42;;;;;;;74.43;30.37;;;-5.20;99.90;;;;;;5046130;28;37400;-79
2022/12/18 04:17:08;;;;;;;86.73;31.33;;;-5.20;99.90;;;;;;5038274;28;40070;-79
2022/12/18 04:19:34;;;;;;;83.73;31.70;;;-5.20;99.90;;;;;;5053809;28;37113;-79
2022/12/18 04:22:00;;;;;;;80.17;30.80;;;-5.20;99.90;;;;;;5041114;28;39021;-79
2022/12/18 04:24:26;;;;;;;74.80;29.37;;;-5.20;99.90;;;;;;5036219;28;38205;-79
2022/12/18 04:26:53;;;;;;;87.40;33.63;;;-5.20;99.90;;;;;;5041532;28;38244;-79
2022/12/18 04:29:19;;;;;;;81.30;32.10;;;-5.20;99.90;;;;;;5055229;28;39317;-79
2022/12/18 04:31:46;;;;;;;88.90;33.03;;;-5.20;99.90;;;;;;5037187;28;37963;-78
2022/12/18 04:34:12;;;;;;;77.40;31.87;;;-5.20;99.90;;;;;;5039929;28;38315;-79
2022/12/18 04:36:38;;;;;;;82.40;31.60;;;-5.20;99.90;;;;;;5039952;28;39516;-79
2022/12/18 04:39:04;;;;;;;75.57;30.00;;;-5.30;99.90;;;;;;5040404;28;38020;-79
2022/12/18 04:41:30;;;;;;;73.67;28.70;;;-5.20;99.90;;;;;;5044661;28;39016;-79
2022/12/18 04:43:56;;;;;;;66.60;27.20;;;-5.30;99.90;;;;;;5045169;28;37476;-79
2022/12/18 04:46:22;;;;;;;80.30;30.67;;;-5.40;99.90;;;;;;5047490;28;37856;-78
2022/12/18 04:48:48;;;;;;;73.80;31.00;;;-5.40;99.90;;;;;;5047567;28;38250;-79
2022/12/18 04:51:15;;;;;;;85.47;29.73;;;-5.50;99.90;;;;;;5042776;28;37968;-79
2022/12/18 04:53:41;;;;;;;74.77;30.90;;;-5.60;99.90;;;;;;5047219;28;37306;-79
2022/12/18 04:56:10;;;;;;;79.33;30.57;;;-5.60;99.90;;;;;;5040675;28;39673;-78
2022/12/18 04:58:38;;;;;;;74.60;27.43;;;-5.60;99.90;;;;;;5038174;28;39154;-79
2022/12/18 05:01:04;;;;;;;80.90;29.13;;;-5.60;99.90;;;;;;5045181;28;39139;-79
2022/12/18 05:03:31;;;;;;;82.53;32.50;;;-5.60;99.90;;;;;;5045994;28;39217;-79
2022/12/18 05:05:57;;;;;;;81.10;30.43;;;-5.60;99.90;;;;;;5044737;28;38705;-79
2022/12/18 05:08:23;;;;;;;81.70;30.73;;;-5.60;99.90;;;;;;5051119;28;39039;-79
2022/12/18 05:10:50;;;;;;;84.43;32.63;;;-5.50;99.90;;;;;;5042767;28;38983;-79
2022/12/18 05:13:16;;;;;;;70.30;27.20;;;-5.50;99.90;;;;;;5047462;28;37618;-79
2022/12/18 05:15:42;;;;;;;72.43;27.63;;;-5.60;99.90;;;;;;5045106;28;40009;-79
2022/12/18 05:18:08;;;;;;;90.80;32.97;;;-5.70;99.90;;;;;;5045569;28;39335;-79
2022/12/18 05:20:34;;;;;;;75.90;29.47;;;-5.70;99.90;;;;;;5046164;28;38900;-79
2022/12/18 05:23:00;;;;;;;71.70;28.43;;;-5.70;99.90;;;;;;5047238;28;37453;-79
2022/12/18 05:25:26;;;;;;;75.27;28.77;;;-5.80;99.90;;;;;;5043115;28;39081;-80
2022/12/18 05:27:52;;;;;;;86.33;29.97;;;-5.80;99.90;;;;;;5043406;28;39153;-79
2022/12/18 05:30:18;;;;;;;76.33;29.97;;;-5.80;99.90;;;;;;5045158;28;35984;-78
2022/12/18 05:32:44;;;;;;;74.53;28.53;;;-5.70;99.90;;;;;;5040514;28;34578;-78
2022/12/18 05:35:11;;;;;;;79.03;29.27;;;-5.70;99.90;;;;;;5038129;28;38791;-79
2022/12/18 05:37:37;;;;;;;71.20;28.33;;;-5.70;99.90;;;;;;5037400;28;39198;-78
2022/12/18 05:40:04;;;;;;;68.67;27.80;;;-5.80;99.90;;;;;;5040709;28;37865;-79
2022/12/18 05:42:30;;;;;;;74.00;29.60;;;-5.80;99.90;;;;;;5039686;28;47417;-78
2022/12/18 05:44:56;;;;;;;69.30;28.80;;;-5.80;99.90;;;;;;5037123;28;37129;-78
2022/12/18 05:47:23;;;;;;;79.40;29.83;;;-5.80;99.90;;;;;;5036224;28;40060;-79
2022/12/18 05:49:49;;;;;;;74.40;29.47;;;-5.80;99.90;;;;;;5037128;28;38466;-79
2022/12/18 05:52:15;;;;;;;75.53;28.60;;;-5.80;99.90;;;;;;5035267;28;35787;-79
2022/12/18 05:54:41;;;;;;;71.03;27.67;;;-5.70;99.90;;;;;;5036454;28;38967;-79
2022/12/18 05:57:07;;;;;;;75.40;29.87;;;-5.80;99.90;;;;;;5040116;28;38569;-79
2022/12/18 05:59:33;;;;;;;72.63;27.87;;;-5.90;99.90;;;;;;5040009;28;38206;-79
2022/12/18 06:01:59;;;;;;;67.00;27.30;;;-5.90;99.90;;;;;;5040340;28;36253;-79
2022/12/18 06:04:28;;;;;;;70.57;28.00;;;-6.00;99.90;;;;;;5037647;28;39449;-78
2022/12/18 06:06:54;;;;;;;64.53;25.83;;;-6.00;99.90;;;;;;5033103;28;38973;-79
2022/12/18 06:09:20;;;;;;;81.40;33.33;;;-6.10;99.90;;;;;;5037923;28;37211;-79
2022/12/18 06:11:46;;;;;;;83.70;31.80;;;-6.10;99.90;;;;;;5038868;28;37442;-79
2022/12/18 06:14:12;;;;;;;78.63;29.43;;;-6.10;99.90;;;;;;5040400;28;38339;-78
2022/12/18 06:16:39;;;;;;;75.70;26.17;;;-6.10;99.90;;;;;;5040129;28;37622;-79
2022/12/18 06:19:05;;;;;;;70.60;26.93;;;-6.10;99.90;;;;;;5053824;28;37021;-79
2022/12/18 06:21:32;;;;;;;70.90;27.43;;;-6.10;99.90;;;;;;5035651;28;38212;-78
2022/12/18 06:23:59;;;;;;;68.33;26.60;;;-6.10;99.90;;;;;;5040176;28;37544;-78
2022/12/18 06:26:25;;;;;;;69.57;28.80;;;-6.10;99.90;;;;;;5038031;28;39030;-78
2022/12/18 06:28:51;;;;;;;66.43;27.37;;;-6.10;99.90;;;;;;5042209;28;39202;-79
2022/12/18 06:31:17;;;;;;;59.30;26.73;;;-6.00;99.90;;;;;;5045405;28;38815;-80
2022/12/18 06:33:43;;;;;;;66.53;28.27;;;-5.90;99.90;;;;;;5044081;28;39510;-78
2022/12/18 06:36:12;;;;;;;65.07;26.70;;;-6.00;99.90;;;;;;5035916;28;39026;-78
2022/12/18 06:38:40;;;;;;;74.20;28.13;;;-6.00;99.90;;;;;;5037026;28;38538;-78
2022/12/18 06:41:08;;;;;;;70.63;26.13;;;-5.90;99.90;;;;;;5037693;28;38354;-78
2022/12/18 06:43:34;;;;;;;66.47;28.03;;;-6.00;99.90;;;;;;5037895;28;37048;-79
2022/12/18 06:46:01;;;;;;;60.57;25.33;;;-5.90;99.90;;;;;;5042091;28;38426;-78
2022/12/18 06:48:28;;;;;;;61.60;25.37;;;-5.90;99.90;;;;;;5035976;28;37967;-78
2022/12/18 06:50:54;;;;;;;62.50;26.47;;;-5.70;99.90;;;;;;5043333;28;37345;-79
2022/12/18 06:53:20;;;;;;;60.37;26.70;;;-5.60;99.90;;;;;;5038971;28;40656;-79
2022/12/18 06:55:46;;;;;;;65.73;26.07;;;-5.60;99.90;;;;;;5034913;28;42109;-80
2022/12/18 06:58:12;;;;;;;60.47;26.47;;;-5.60;99.90;;;;;;5037530;28;38819;-79
2022/12/18 07:00:38;;;;;;;59.37;26.20;;;-5.50;99.90;;;;;;5037102;28;37436;-79
2022/12/18 07:03:04;;;;;;;63.87;26.60;;;-5.60;99.90;;;;;;5041905;28;39313;-79
2022/12/18 07:05:31;;;;;;;56.60;25.27;;;-5.60;99.90;;;;;;5038908;28;38602;-79
2022/12/18 07:07:58;;;;;;;63.43;26.17;;;-5.60;99.90;;;;;;5043962;28;39489;-79
2022/12/18 07:10:24;;;;;;;54.83;24.23;;;-5.60;99.90;;;;;;5041024;28;38787;-79
2022/12/18 07:12:50;;;;;;;53.70;24.27;;;-5.50;99.90;;;;;;5040008;28;40555;-78
2022/12/18 07:15:16;;;;;;;54.40;23.93;;;-5.40;99.90;;;;;;5048950;28;37641;-79
2022/12/18 07:17:42;;;;;;;51.60;22.03;;;-5.40;99.90;;;;;;5044307;28;38603;-79
2022/12/18 07:20:09;;;;;;;50.20;24.20;;;-5.30;99.90;;;;;;5046515;28;37830;-79
2022/12/18 07:22:35;;;;;;;47.87;22.63;;;-5.30;99.90;;;;;;5046118;28;39585;-80
2022/12/18 07:25:01;;;;;;;54.47;25.17;;;-5.20;99.90;;;;;;5050926;28;37550;-79
2022/12/18 07:27:27;;;;;;;45.03;21.80;;;-5.20;99.90;;;;;;5044381;28;37932;-79
2022/12/18 07:29:54;;;;;;;54.60;24.07;;;-5.20;99.90;;;;;;5045525;28;38302;-79
2022/12/18 07:32:21;;;;;;;47.20;22.73;;;-5.10;99.90;;;;;;5057819;28;37729;-79
2022/12/18 07:34:47;;;;;;;43.43;21.57;;;-5.10;99.90;;;;;;5043824;28;39121;-79
2022/12/18 07:37:13;;;;;;;47.17;21.70;;;-5.00;99.90;;;;;;5049548;28;39103;-80
2022/12/18 07:39:39;;;;;;;42.90;21.70;;;-5.00;99.90;;;;;;5052136;28;37724;-80
2022/12/18 07:44:52;;;;;;;43.20;20.77;;;-4.90;99.90;;;;;;5044507;28;39444;-80
2022/12/18 07:47:19;;;;;;;43.10;21.97;;;-4.90;99.90;;;;;;5048581;28;40078;-80
2022/12/18 07:49:45;;;;;;;43.73;21.57;;;-4.90;99.90;;;;;;5048019;28;38180;-79
2022/12/18 07:52:12;;;;;;;40.07;20.37;;;-4.90;99.90;;;;;;5049495;28;39250;-80
2022/12/18 07:54:38;;;;;;;41.27;20.20;;;-5.00;99.90;;;;;;5045999;28;37861;-79
2022/12/18 07:57:04;;;;;;;47.77;22.80;;;-5.00;99.90;;;;;;5048082;28;39683;-80
2022/12/18 07:59:31;;;;;;;43.97;19.73;;;-5.00;99.90;;;;;;5042077;28;37435;-79
2022/12/18 08:01:57;;;;;;;43.97;20.67;;;-5.00;99.90;;;;;;5036374;28;38960;-79
2022/12/18 08:04:23;;;;;;;38.80;19.83;;;-5.00;99.90;;;;;;5045690;28;38250;-80
2022/12/18 08:06:49;;;;;;;40.43;19.40;;;-5.00;99.90;;;;;;5041954;28;38347;-79
2022/12/18 08:09:15;;;;;;;40.77;20.17;;;-5.00;99.90;;;;;;5044264;28;36266;-79
2022/12/18 08:11:42;;;;;;;40.37;20.90;;;-4.90;99.90;;;;;;5043095;28;38039;-78
2022/12/18 08:14:08;;;;;;;40.20;19.43;;;-4.90;99.90;;;;;;5039824;28;39682;-77
2022/12/18 08:16:35;;;;;;;41.63;20.17;;;-4.90;99.90;;;;;;5042580;28;37061;-78
2022/12/18 08:19:01;;;;;;;37.37;19.83;;;-4.90;99.90;;;;;;5045913;28;38403;-79
2022/12/18 08:21:30;;;;;;;39.37;18.73;;;-4.90;99.90;;;;;;5034658;28;42172;-79
2022/12/18 08:23:58;;;;;;;39.60;20.13;;;-4.80;99.90;;;;;;5041001;28;37661;-79
2022/12/18 08:26:26;;;;;;;36.27;19.57;;;-4.80;99.90;;;;;;5045535;28;37384;-79
2022/12/18 08:28:55;;;;;;;45.07;22.20;;;-4.80;99.90;;;;;;5039622;28;37105;-79
2022/12/18 08:31:21;;;;;;;46.20;21.33;;;-4.70;99.90;;;;;;5044021;28;39934;-79
2022/12/18 08:33:52;;;;;;;51.07;23.33;;;-4.70;99.90;;;;;;5045539;28;39053;-79
2022/12/18 08:36:22;;;;;;;50.80;22.50;;;-4.60;99.90;;;;;;5044222;28;38556;-80
2022/12/18 08:38:48;;;;;;;48.93;23.27;;;-4.50;99.90;;;;;;5043206;28;36101;-79
2022/12/18 08:41:16;;;;;;;57.47;27.57;;;-4.50;99.90;;;;;;5037772;28;38465;-79
2022/12/18 08:46:33;;;;;;;47.40;22.13;;;-4.40;99.90;;;;;;5046317;28;46760;-80
2022/12/18 08:48:59;;;;;;;37.95;21.42;;;-4.30;99.90;;;;;;5043169;28;37886;-78
2022/12/18 08:51:25;;;;;;;38.13;20.60;;;-4.30;99.90;;;;;;5034342;28;38480;-80
2022/12/18 08:53:52;;;;;;;43.87;23.10;;;-4.30;99.90;;;;;;5041440;28;38318;-79
2022/12/18 08:56:18;;;;;;;37.67;20.60;;;-4.30;99.90;;;;;;5043328;28;38895;-79
2022/12/18 08:58:44;;;;;;;40.37;20.60;;;-4.20;99.90;;;;;;5046672;28;36228;-79
2022/12/18 09:01:12;;;;;;;41.77;20.40;;;-4.20;99.90;;;;;;5043854;28;39263;-79
2022/12/18 09:03:39;;;;;;;41.07;21.63;;;-4.20;99.90;;;;;;5047360;28;38445;-80
2022/12/18 09:06:06;;;;;;;37.60;20.17;;;-4.10;99.90;;;;;;5050000;28;37273;-80
2022/12/18 09:08:34;;;;;;;38.87;21.47;;;-4.10;99.90;;;;;;5048158;28;36947;-80
2022/12/18 09:11:00;;;;;;;39.23;21.90;;;-4.10;99.90;;;;;;5048400;28;38941;-79
2022/12/18 09:13:26;;;;;;;42.50;20.90;;;-4.00;99.90;;;;;;5060829;28;36868;-79
2022/12/18 09:15:54;;;;;;;42.93;22.47;;;-4.00;99.90;;;;;;5048359;28;38095;-79
2022/12/18 09:18:22;;;;;;;38.13;21.10;;;-4.00;99.90;;;;;;5044777;28;37560;-79
2022/12/18 09:20:50;;;;;;;40.37;20.63;;;-3.90;99.90;;;;;;5043052;28;38604;-79
2022/12/18 09:23:16;;;;;;;32.93;18.83;;;-3.90;99.90;;;;;;5042285;28;38911;-79
2022/12/18 09:25:42;;;;;;;38.83;21.23;;;-3.80;99.90;;;;;;5042434;28;37629;-79
2022/12/18 09:28:14;;;;;;;40.27;21.03;;;-3.80;99.90;;;;;;5042379;28;37950;-79
2022/12/18 09:30:44;;;;;;;39.75;21.30;;;-3.70;99.90;;;;;;5043035;28;39742;-79
2022/12/18 09:33:10;;;;;;;42.00;21.50;;;-3.60;99.90;;;;;;5045075;28;38310;-79
2022/12/18 09:35:38;;;;;;;40.17;21.27;;;-3.60;99.90;;;;;;5046611;28;38266;-80
2022/12/18 09:38:05;;;;;;;40.83;22.03;;;-3.50;99.90;;;;;;5044043;28;39193;-80
2022/12/18 09:40:43;;;;;;;40.53;21.63;;;-3.50;99.90;;;;;;5038311;28;40427;-80
2022/12/18 09:43:26;;;;;;;38.03;21.10;;;-3.40;99.90;;;;;;5057849;28;37215;-80
2022/12/18 09:46:01;;;;;;;36.63;19.87;;;-3.40;99.90;;;;;;5042279;28;38273;-80
2022/12/18 09:48:41;;;;;;;38.13;21.37;;;-3.30;99.90;;;;;;5041253;28;38542;-81
2022/12/18 09:51:30;;;;;;;39.27;20.50;;;-3.30;99.90;;;;;;5050342;28;39078;-81
2022/12/18 09:54:14;;;;;;;34.43;20.03;;;-3.20;99.90;;;;;;5054380;28;38842;-80
2022/12/18 09:57:10;;;;;;;36.60;20.60;;;-3.20;99.90;;;;;;5051267;28;46865;-81
2022/12/18 09:59:41;;;;;;;34.50;19.87;;;-3.10;99.90;;;;;;5041075;28;48432;-81
2022/12/18 10:02:22;;;;;;;34.67;18.13;;;-3.00;99.90;;;;;;5043227;28;40162;-81
2022/12/18 10:05:03;;;;;;;33.27;19.20;;;-2.90;99.90;;;;;;5069840;28;39536;-81
2022/12/18 10:07:56;;;;;;;40.33;20.80;;;-2.90;99.90;;;;;;5068465;28;48772;-82
2022/12/18 10:10:24;;;;;;;35.05;19.92;;;-2.90;99.90;;;;;;5064873;28;37862;-80
2022/12/18 10:12:53;;;;;;;32.67;18.83;;;-2.90;99.90;;;;;;5058401;28;38000;-81
2022/12/18 10:15:40;;;;;;;71.40;40.23;;;-2.90;99.90;;;;;;5068329;28;37269;-81
2022/12/18 10:18:33;;;;;;;47.60;25.77;;;-2.80;99.90;;;;;;5066277;28;37067;-81
2022/12/18 10:21:14;;;;;;;32.78;18.98;;;-2.80;99.90;;;;;;5077208;22;38914;-79
2022/12/18 10:23:55;;;;;;;35.57;19.13;;;-2.70;99.90;;;;;;5070819;28;47405;-79
2022/12/18 10:26:21;;;;;;;35.13;20.83;;;-2.70;99.90;;;;;;5072372;28;39654;-79
2022/12/18 10:28:47;;;;;;;41.03;22.37;;;-2.70;99.90;;;;;;5073984;28;39408;-79
2022/12/18 10:31:18;;;;;;;33.80;18.57;;;-2.70;99.90;;;;;;5068780;28;38100;-78
2022/12/18 10:33:45;;;;;;;33.57;19.20;;;-2.50;99.90;;;;;;5065819;28;39024;-79
2022/12/18 10:36:11;;;;;;;32.50;18.40;;;-2.50;99.90;;;;;;5062215;28;40348;-79
2022/12/18 10:38:38;;;;;;;34.47;20.27;;;-2.40;99.90;;;;;;5065199;28;37404;-79
2022/12/18 10:41:27;;;;;;;33.27;18.30;;;-2.40;99.90;;;;;;5064704;28;38005;-79
2022/12/18 10:44:18;;;;;;;34.30;18.67;;;-2.40;99.90;;;;;;5067427;28;49823;-79
2022/12/18 10:46:46;;;;;;;30.10;18.20;;;-2.30;99.90;;;;;;5070253;28;49670;-79
2022/12/18 10:49:24;;;;;;;31.97;18.77;;;-2.20;99.90;;;;;;5064847;28;38894;-79
2022/12/18 10:51:51;;;;;;;31.37;18.03;;;-2.20;99.90;;;;;;5061408;28;38084;-79
2022/12/18 10:54:25;;;;;;;38.27;21.67;;;-2.20;99.90;;;;;;5058296;28;39084;-78
2022/12/18 10:56:51;;;;;;;37.37;21.77;;;-2.10;99.90;;;;;;5060214;28;38891;-78
2022/12/18 10:59:18;;;;;;;35.83;20.00;;;-2.00;99.90;;;;;;5064949;28;37967;-79
2022/12/18 11:01:56;;;;;;;33.03;20.57;;;-2.00;99.90;;;;;;5064941;28;38341;-78
2022/12/18 11:04:28;;;;;;;35.63;20.70;;;-1.90;99.90;;;;;;5065178;28;38770;-79
2022/12/18 11:07:08;;;;;;;38.83;23.15;;;-1.80;99.90;;;;;;5060425;28;37857;-78
2022/12/18 11:09:37;;;;;;;34.80;21.63;;;-1.90;99.90;;;;;;5065461;28;48574;-80
2022/12/18 11:12:06;;;;;;;35.60;19.97;;;-1.90;99.90;;;;;;5072937;28;36375;-79
2022/12/18 11:14:51;;;;;;;36.90;20.37;;;-1.80;99.90;;;;;;5070095;28;39145;-78
2022/12/18 11:17:27;;;;;;;37.13;19.30;;;-1.80;99.90;;;;;;5064715;28;37639;-79
2022/12/18 11:19:56;;;;;;;39.07;20.67;;;-1.70;99.90;;;;;;5064157;28;39033;-79
2022/12/18 11:22:31;;;;;;;38.80;22.00;;;-1.70;99.90;;;;;;5061593;28;37264;-79
2022/12/18 11:25:10;;;;;;;31.03;18.97;;;-1.60;99.90;;;;;;5063413;28;38003;-79
2022/12/18 11:27:38;;;;;;;28.57;17.10;;;-1.60;99.90;;;;;;5062205;28;48663;-79
2022/12/18 11:30:37;;;;;;;33.93;18.43;;;-1.60;99.90;;;;;;5067177;28;38240;-78
2022/12/18 11:33:10;;;;;;;30.00;17.43;;;-1.50;99.90;;;;;;5055460;28;38043;-78
2022/12/18 11:35:45;;;;;;;28.63;16.87;;;-1.50;99.90;;;;;;5083877;28;38845;-79
2022/12/18 11:38:25;;;;;;;33.17;18.37;;;-1.50;99.90;;;;;;5062381;28;39239;-79
2022/12/18 11:41:22;;;;;;;33.10;18.13;;;-1.50;99.90;;;;;;5063395;28;37160;-79
2022/12/18 11:44:00;;;;;;;29.20;17.17;;;-1.50;99.90;;;;;;5062929;28;47356;-78
2022/12/18 11:46:33;;;;;;;31.37;18.43;;;-1.40;99.90;;;;;;5060915;28;36389;-78
2022/12/18 11:49:26;;;;;;;27.48;17.42;;;-1.40;99.90;;;;;;5059274;28;37540;-78
2022/12/18 11:52:16;;;;;;;30.23;17.63;;;-1.40;99.90;;;;;;5053507;28;47102;-78
2022/12/18 11:54:42;;;;;;;28.27;17.03;;;-1.40;99.90;;;;;;5060082;28;48850;-78
2022/12/18 11:57:34;;;;;;;27.17;16.43;;;-1.40;99.90;;;;;;5061828;28;37732;-79
2022/12/18 12:00:18;;;;;;;30.02;17.20;;;-1.30;99.90;;;;;;5081017;28;38964;-78
2022/12/18 12:03:02;;;;;;;30.30;18.93;;;-1.30;99.90;;;;;;5063962;28;48027;-79
2022/12/18 12:05:47;;;;;;;32.33;18.73;;;-1.30;99.90;;;;;;5067706;28;47247;-79
2022/12/18 12:08:35;;;;;;;29.57;17.23;;;-1.30;99.90;;;;;;5070884;28;38492;-79
2022/12/18 12:11:23;;;;;;;27.83;16.07;;;-1.30;99.90;;;;;;5071230;28;38554;-81
2022/12/18 12:14:10;;;;;;;32.87;19.13;;;-1.20;99.90;;;;;;5086983;28;47319;-79
2022/12/18 12:16:57;;;;;;;32.17;18.93;;;-1.10;99.90;;;;;;5080189;28;48248;-79
2022/12/18 12:19:39;;;;;;;32.50;19.10;;;-1.20;99.90;;;;;;5070603;28;37861;-79
2022/12/18 12:22:08;;;;;;;30.58;17.70;;;-1.20;99.90;;;;;;5067468;28;37185;-80
2022/12/18 12:24:49;;;;;;;25.90;16.37;;;-1.20;99.90;;;;;;5070523;28;36937;-79
2022/12/18 12:27:43;;;;;;;30.13;18.63;;;-1.20;99.90;;;;;;5068035;28;35641;-79
2022/12/18 12:30:13;;;;;;;;;;;-1.20;99.90;;;;;;5076958;28;38109;-79
2022/12/18 12:32:57;;;;;;;29.33;18.00;;;-1.20;99.90;;;;;;5087080;28;40633;-79
2022/12/18 12:35:51;;;;;;;30.37;18.60;;;-1.20;99.90;;;;;;5064115;28;38213;-79
2022/12/18 12:38:43;;;;;;;29.60;18.03;;;-1.20;99.90;;;;;;5072701;28;37729;-80
2022/12/18 12:44:08;;;;;;;27.97;17.37;;;-1.00;99.90;;;;;;5084821;28;40266;-79
2022/12/18 12:46:39;;;;;;;26.33;16.83;;;-1.10;99.90;;;;;;5080503;28;39727;-78
2022/12/18 12:49:14;;;;;;;27.83;17.33;;;-1.10;99.90;;;;;;5073045;27;35779;-80
2022/12/18 12:51:46;;;;;;;30.77;18.20;;;-1.10;99.90;;;;;;5088041;27;38918;-80
2022/12/18 12:54:19;;;;;;;28.60;16.92;;;-1.00;99.90;;;;;;5084059;27;36526;-79
2022/12/18 12:57:11;;;;;;;29.95;15.82;;;-1.00;99.90;;;;;;5077654;28;38284;-79
2022/12/18 13:00:04;;;;;;;27.90;16.73;;;-1.00;99.90;;;;;;5069305;28;47357;-79